Time;durP1;ratioP1;P1;durP2;ratioP2;P2;SDS_P1;SDS_P2;PMS_P1;PMS_P2;Temp;Humidity;BMP_temperature;BMP_pressure;BME280_temperature;BME280_humidity;BME280_pressure;Samples;Min_cycle;Max_cycle;Signal;HPM_P1;HPM_P2
2021/01/06 00:00:10;;;;;;;12.20;5.97;;;1.70;99.90;;;;;;5077397;28;20269;-54
2021/01/06 00:02:42;;;;;;;10.32;6.28;;;1.70;99.90;;;;;;5077458;28;20269;-55
2021/01/06 00:05:20;;;;;;;10.67;6.30;;;1.60;99.90;;;;;;5077634;28;20028;-54
2021/01/06 00:07:47;;;;;;;12.70;6.50;;;1.60;99.90;;;;;;5077760;28;20263;-54
2021/01/06 00:10:16;;;;;;;14.03;7.10;;;1.60;99.90;;;;;;5077790;28;20065;-54
2021/01/06 00:12:43;;;;;;;11.83;6.63;;;1.60;99.90;;;;;;5077769;28;20721;-54
2021/01/06 00:15:18;;;;;;;11.47;7.67;;;1.60;99.90;;;;;;5077224;28;20064;-54
2021/01/06 00:17:44;;;;;;;11.63;7.17;;;1.60;99.90;;;;;;5077172;28;20375;-54
2021/01/06 00:20:12;;;;;;;12.77;6.67;;;1.70;99.90;;;;;;5083246;28;20093;-54
2021/01/06 00:22:39;;;;;;;13.87;7.00;;;1.70;99.90;;;;;;5097701;28;20031;-54
2021/01/06 00:25:07;;;;;;;10.70;7.17;;;1.70;99.90;;;;;;5097785;28;20060;-54
2021/01/06 00:27:32;;;;;;;16.80;6.47;;;1.70;99.90;;;;;;5097740;28;20064;-54
2021/01/06 00:29:58;;;;;;;13.20;7.55;;;1.60;99.90;;;;;;5096500;28;20260;-54
2021/01/06 00:32:23;;;;;;;11.97;7.10;;;1.70;99.90;;;;;;5097210;28;19935;-54
2021/01/06 00:34:49;;;;;;;12.97;6.80;;;1.60;99.90;;;;;;5097787;28;20032;-54
2021/01/06 00:37:16;;;;;;;10.97;6.30;;;1.60;99.90;;;;;;5097683;28;20108;-54
2021/01/06 00:39:41;;;;;;;14.27;6.37;;;1.50;99.90;;;;;;5097446;28;20032;-55
2021/01/06 00:42:07;;;;;;;19.43;7.30;;;1.50;99.90;;;;;;5097357;28;20516;-54
2021/01/06 00:44:33;;;;;;;13.10;7.60;;;1.50;99.90;;;;;;5096811;28;19929;-54
2021/01/06 00:46:58;;;;;;;11.17;6.17;;;1.50;99.90;;;;;;5097519;28;20031;-54
2021/01/06 00:49:24;;;;;;;15.93;7.47;;;1.50;99.90;;;;;;5097275;28;19919;-54
2021/01/06 00:51:50;;;;;;;15.45;8.40;;;1.50;99.90;;;;;;5095655;28;20134;-54
2021/01/06 00:54:17;;;;;;;13.10;6.30;;;1.60;99.90;;;;;;5095797;28;19916;-54
2021/01/06 00:56:42;;;;;;;12.90;5.70;;;1.50;99.90;;;;;;5097335;28;20032;-54
2021/01/06 00:59:08;;;;;;;14.77;6.57;;;1.50;99.90;;;;;;5097299;28;20074;-54
2021/01/06 01:01:33;;;;;;;12.70;6.57;;;1.50;99.90;;;;;;5095581;28;20054;-54
2021/01/06 01:03:59;;;;;;;12.67;7.03;;;1.60;99.90;;;;;;5096859;28;20059;-54
2021/01/06 01:06:30;;;;;;;14.83;7.53;;;1.50;99.90;;;;;;5096689;28;19998;-54
2021/01/06 01:08:57;;;;;;;13.17;7.13;;;1.50;99.90;;;;;;5096866;28;20145;-54
2021/01/06 01:11:23;;;;;;;12.17;7.07;;;1.50;99.90;;;;;;5095399;28;20078;-54
2021/01/06 01:13:53;;;;;;;13.25;7.40;;;1.60;99.90;;;;;;5097102;28;20158;-54
2021/01/06 01:16:21;;;;;;;11.17;5.87;;;1.50;99.90;;;;;;5095345;28;20020;-54
2021/01/06 01:18:47;;;;;;;12.10;6.40;;;1.50;99.90;;;;;;5096452;28;20369;-54
2021/01/06 01:21:18;;;;;;;11.27;7.03;;;1.40;99.90;;;;;;5081683;28;20607;-55
2021/01/06 01:23:44;;;;;;;13.77;6.40;;;1.50;99.90;;;;;;5076422;28;20245;-54
2021/01/06 01:26:11;;;;;;;10.40;6.60;;;1.50;99.90;;;;;;5076735;28;20052;-54
2021/01/06 01:28:36;;;;;;;11.00;6.97;;;1.50;99.90;;;;;;5076070;28;20025;-54
2021/01/06 01:31:02;;;;;;;11.50;6.15;;;1.50;99.90;;;;;;5076384;28;20352;-54
2021/01/06 01:33:28;;;;;;;10.87;6.30;;;1.50;99.90;;;;;;5076410;28;20003;-54
2021/01/06 01:35:54;;;;;;;13.37;6.60;;;1.60;99.90;;;;;;5076268;28;20510;-54
2021/01/06 01:38:22;;;;;;;9.40;5.40;;;1.60;99.90;;;;;;5076233;28;20140;-54
2021/01/06 01:41:03;;;;;;;13.87;6.40;;;1.60;99.90;;;;;;5077077;28;20032;-54
2021/01/06 01:43:30;;;;;;;11.67;6.57;;;1.60;99.90;;;;;;5080534;28;20061;-54
2021/01/06 01:45:55;;;;;;;11.83;6.40;;;1.70;99.90;;;;;;5086981;28;20158;-54
2021/01/06 01:48:42;;;;;;;9.17;5.60;;;1.70;99.90;;;;;;5100489;28;20513;-54
2021/01/06 01:51:32;;;;;;;7.43;5.17;;;1.80;99.90;;;;;;5100890;28;20107;-54
2021/01/06 01:54:05;;;;;;;10.50;5.30;;;1.80;99.90;;;;;;5100635;28;20102;-54
2021/01/06 01:56:40;;;;;;;12.50;5.53;;;1.80;99.90;;;;;;5100987;28;20056;-54
2021/01/06 01:59:13;;;;;;;9.73;6.13;;;1.90;99.90;;;;;;5100273;28;20088;-54
2021/01/06 02:01:38;;;;;;;9.83;4.87;;;1.90;99.90;;;;;;5100486;28;20056;-54
2021/01/06 02:04:35;;;;;;;13.50;5.57;;;1.90;99.90;;;;;;5100032;28;20093;-54
2021/01/06 02:07:16;;;;;;;9.97;4.87;;;1.90;99.90;;;;;;5098307;28;20073;-54
2021/01/06 02:09:54;;;;;;;17.03;6.23;;;2.00;99.90;;;;;;5099951;28;20424;-54
2021/01/06 02:12:38;;;;;;;9.90;5.67;;;1.90;99.90;;;;;;5099669;28;20060;-54
2021/01/06 02:15:06;;;;;;;;;;;1.90;99.90;;;;;;5100798;28;20547;-55
2021/01/06 02:17:32;;;;;;;9.47;4.87;;;1.90;99.90;;;;;;5099960;28;19931;-54
2021/01/06 02:19:58;;;;;;;10.63;5.90;;;1.90;99.90;;;;;;5100072;28;20489;-54
2021/01/06 02:22:24;;;;;;;10.83;6.23;;;1.90;99.90;;;;;;5099883;28;20067;-54
2021/01/06 02:24:51;;;;;;;13.53;6.20;;;1.80;99.90;;;;;;5099871;28;20025;-58
2021/01/06 02:27:19;;;;;;;9.25;5.65;;;1.80;99.90;;;;;;5100060;28;20257;-54
2021/01/06 02:29:45;;;;;;;10.50;5.87;;;1.80;99.90;;;;;;5099976;28;20256;-54
2021/01/06 02:32:11;;;;;;;10.73;5.63;;;1.80;99.90;;;;;;5099683;28;20060;-54
2021/01/06 02:34:41;;;;;;;11.73;5.67;;;1.80;99.90;;;;;;5099533;28;20084;-54
2021/01/06 02:37:08;;;;;;;10.77;5.83;;;1.80;99.90;;;;;;5099785;28;20143;-54
2021/01/06 02:39:34;;;;;;;10.83;6.10;;;1.80;99.90;;;;;;5099486;28;20260;-54
2021/01/06 02:42:00;;;;;;;12.83;6.00;;;1.70;99.90;;;;;;5099400;28;20045;-54
2021/01/06 02:44:26;;;;;;;13.33;8.30;;;1.70;99.90;;;;;;5099462;28;20095;-53
2021/01/06 02:46:54;;;;;;;11.67;6.10;;;1.70;99.90;;;;;;5099432;28;20591;-54
2021/01/06 02:49:21;;;;;;;14.60;7.17;;;1.70;99.90;;;;;;5098394;28;20028;-54
2021/01/06 02:51:51;;;;;;;13.30;6.23;;;1.70;99.90;;;;;;5099281;28;20060;-53
2021/01/06 02:54:30;;;;;;;11.77;6.53;;;1.60;99.90;;;;;;5099305;28;20097;-54
2021/01/06 02:56:57;;;;;;;10.45;5.85;;;1.70;99.90;;;;;;5099571;28;20243;-54
2021/01/06 02:59:30;;;;;;;10.77;5.73;;;1.60;99.90;;;;;;5099033;28;20612;-54
2021/01/06 03:01:58;;;;;;;12.80;6.07;;;1.50;99.90;;;;;;5098737;28;20317;-54
2021/01/06 03:04:27;;;;;;;10.20;5.77;;;1.50;99.90;;;;;;5097690;28;20518;-54
2021/01/06 03:07:01;;;;;;;14.00;6.25;;;1.50;99.90;;;;;;5099060;28;20077;-54
2021/01/06 03:09:34;;;;;;;11.90;6.77;;;1.50;99.90;;;;;;5099337;28;20489;-54
2021/01/06 03:12:04;;;;;;;11.00;6.18;;;1.40;99.90;;;;;;5099452;28;20045;-54
2021/01/06 03:14:32;;;;;;;12.67;6.40;;;1.40;99.90;;;;;;5099518;28;20434;-54
2021/01/06 03:17:00;;;;;;;15.93;7.93;;;1.40;99.90;;;;;;5097541;28;20049;-54
2021/01/06 03:19:28;;;;;;;10.70;6.33;;;1.40;99.90;;;;;;5098674;28;20248;-54
2021/01/06 03:21:56;;;;;;;12.57;7.17;;;1.40;99.90;;;;;;5078831;28;20097;-54
2021/01/06 03:24:26;;;;;;;14.10;6.57;;;1.50;99.90;;;;;;5078136;28;20253;-54
2021/01/06 03:26:55;;;;;;;13.20;6.45;;;1.40;99.90;;;;;;5078721;28;20208;-54
2021/01/06 03:29:21;;;;;;;9.83;5.83;;;1.40;99.90;;;;;;5078406;28;20115;-54
2021/01/06 03:31:49;;;;;;;15.10;6.53;;;1.40;99.90;;;;;;5092048;28;20066;-54
2021/01/06 03:34:22;;;;;;;14.35;7.15;;;1.40;99.90;;;;;;5098265;28;20077;-54
2021/01/06 03:37:03;;;;;;;;;;;1.40;99.90;;;;;;5099114;28;20189;-54
2021/01/06 03:39:36;;;;;;;12.77;6.40;;;1.40;99.90;;;;;;5098108;28;19904;-53
2021/01/06 03:42:02;;;;;;;11.13;6.97;;;1.40;99.90;;;;;;5098636;28;20267;-54
2021/01/06 03:44:30;;;;;;;9.97;6.37;;;1.40;99.90;;;;;;5098910;28;19912;-54
2021/01/06 03:47:04;;;;;;;10.77;6.37;;;1.40;99.90;;;;;;5097876;28;20241;-54
2021/01/06 03:49:46;;;;;;;12.47;6.43;;;1.50;99.90;;;;;;5098384;28;20139;-53
2021/01/06 03:52:33;;;;;;;11.30;6.67;;;1.40;99.90;;;;;;5098076;28;20071;-54
2021/01/06 03:55:05;;;;;;;12.60;6.97;;;1.40;99.90;;;;;;5097515;28;20149;-54
2021/01/06 03:57:31;;;;;;;10.20;6.70;;;1.40;99.90;;;;;;5098149;28;20040;-54
2021/01/06 03:59:59;;;;;;;14.17;6.87;;;1.50;99.90;;;;;;5097890;28;20245;-54
2021/01/06 04:02:45;;;;;;;9.30;5.80;;;1.50;99.90;;;;;;5096742;28;20159;-54
2021/01/06 04:05:17;;;;;;;12.90;7.20;;;1.50;99.90;;;;;;5097029;28;20095;-54
2021/01/06 04:07:44;;;;;;;13.10;5.27;;;1.60;99.90;;;;;;5098113;28;20253;-54
2021/01/06 04:10:17;;;;;;;12.77;6.97;;;1.60;99.90;;;;;;5098158;28;20198;-54
2021/01/06 04:12:42;;;;;;;11.30;6.78;;;1.60;99.90;;;;;;5097557;28;20059;-54
2021/01/06 04:15:12;;;;;;;10.60;6.30;;;1.60;99.90;;;;;;5098027;28;20024;-54
2021/01/06 04:17:41;;;;;;;13.70;7.13;;;1.60;99.90;;;;;;5097672;28;20028;-54
2021/01/06 04:20:33;;;;;;;10.97;6.37;;;1.60;99.90;;;;;;5091952;28;20131;-54
2021/01/06 04:23:02;;;;;;;10.10;5.95;;;1.60;99.90;;;;;;5077111;28;20253;-54
2021/01/06 04:25:34;;;;;;;14.03;6.43;;;1.50;99.90;;;;;;5077538;28;20096;-54
2021/01/06 04:28:20;;;;;;;11.37;7.00;;;1.50;99.90;;;;;;5077452;28;20254;-54
2021/01/06 04:30:52;;;;;;;12.70;6.30;;;1.50;99.90;;;;;;5077275;28;20067;-54
2021/01/06 04:33:44;;;;;;;14.40;6.37;;;1.50;99.90;;;;;;5077327;28;20147;-54
2021/01/06 04:36:31;;;;;;;14.00;6.10;;;1.50;99.90;;;;;;5080241;28;20155;-54
2021/01/06 04:38:59;;;;;;;15.97;6.60;;;1.50;99.90;;;;;;5097217;28;20064;-54
2021/01/06 04:41:40;;;;;;;13.10;6.65;;;1.50;99.90;;;;;;5096898;28;20329;-54
2021/01/06 04:44:12;;;;;;;12.60;6.13;;;1.50;99.90;;;;;;5097481;28;20327;-54
2021/01/06 04:46:59;;;;;;;9.90;6.03;;;1.50;99.90;;;;;;5097564;28;20148;-54
2021/01/06 04:49:33;;;;;;;9.27;6.17;;;1.50;99.90;;;;;;5097158;28;20236;-53
2021/01/06 04:52:21;;;;;;;14.60;6.07;;;1.50;99.90;;;;;;5097326;28;20138;-54
2021/01/06 04:55:10;;;;;;;12.17;5.97;;;1.50;99.90;;;;;;5095634;28;20153;-54
2021/01/06 04:57:41;;;;;;;10.43;5.63;;;1.50;99.90;;;;;;5097092;28;20071;-54
2021/01/06 05:00:21;;;;;;;11.97;5.80;;;1.50;99.90;;;;;;5096886;28;20454;-54
2021/01/06 05:02:56;;;;;;;11.47;6.13;;;1.40;99.90;;;;;;5096548;28;20263;-54
2021/01/06 05:05:55;;;;;;;10.33;6.47;;;1.30;99.90;;;;;;5096807;28;20081;-54
2021/01/06 05:08:27;;;;;;;12.17;6.17;;;1.30;99.90;;;;;;5097015;28;20235;-54
2021/01/06 05:11:06;;;;;;;12.93;7.03;;;1.30;99.90;;;;;;5095201;28;20742;-54
2021/01/06 05:13:41;;;;;;;15.07;6.77;;;1.30;99.90;;;;;;5096808;28;20098;-54
2021/01/06 05:16:23;;;;;;;9.63;6.30;;;1.30;99.90;;;;;;5096031;28;20066;-54
2021/01/06 05:18:49;;;;;;;11.07;6.40;;;1.40;99.90;;;;;;5097053;28;20048;-54
2021/01/06 05:21:25;;;;;;;12.03;5.87;;;1.30;99.90;;;;;;5096628;28;20047;-54
2021/01/06 05:23:55;;;;;;;11.43;5.87;;;1.30;99.90;;;;;;5095599;28;20062;-54
2021/01/06 05:26:20;;;;;;;16.87;7.13;;;1.40;99.90;;;;;;5097087;28;20470;-54
2021/01/06 05:28:48;;;;;;;13.13;7.27;;;1.40;99.90;;;;;;5096803;28;20075;-54
2021/01/06 05:31:14;;;;;;;12.27;5.80;;;1.50;99.90;;;;;;5096574;28;19925;-55
2021/01/06 05:33:44;;;;;;;15.93;7.20;;;1.50;99.90;;;;;;5096565;28;20257;-55
2021/01/06 05:36:29;;;;;;;13.50;6.90;;;1.50;99.90;;;;;;5096687;28;19904;-56
2021/01/06 05:38:55;;;;;;;13.00;6.67;;;1.50;99.90;;;;;;5096552;28;20575;-55
2021/01/06 05:41:21;;;;;;;10.70;6.35;;;1.50;99.90;;;;;;5096515;28;20078;-55
2021/01/06 05:43:53;;;;;;;13.95;6.30;;;1.50;99.90;;;;;;5096227;28;20137;-55
2021/01/06 05:46:28;;;;;;;13.17;7.13;;;1.50;99.90;;;;;;5096096;28;20032;-55
2021/01/06 05:48:57;;;;;;;12.70;6.30;;;1.50;99.90;;;;;;5096764;28;20256;-55
2021/01/06 05:51:33;;;;;;;12.57;6.93;;;1.50;99.90;;;;;;5096092;28;20072;-55
2021/01/06 05:54:26;;;;;;;15.30;6.80;;;1.50;99.90;;;;;;5096457;28;20059;-55
2021/01/06 05:56:52;;;;;;;12.10;5.82;;;1.60;99.90;;;;;;5095949;28;20514;-54
2021/01/06 05:59:41;;;;;;;11.87;7.40;;;1.60;99.90;;;;;;5096229;28;20028;-54
2021/01/06 06:02:39;;;;;;;20.37;7.07;;;1.70;99.90;;;;;;5095810;28;20032;-55
2021/01/06 06:05:19;;;;;;;13.00;6.50;;;1.70;99.90;;;;;;5096019;28;20267;-54
2021/01/06 06:08:22;;;;;;;15.00;7.00;;;1.70;99.90;;;;;;5096097;28;20068;-55
2021/01/06 06:11:23;;;;;;;15.50;6.97;;;1.70;99.90;;;;;;5096236;28;20064;-54
2021/01/06 06:14:11;;;;;;;12.25;6.70;;;1.80;99.90;;;;;;5087019;28;20119;-55
2021/01/06 06:16:36;;;;;;;15.57;8.80;;;1.80;99.90;;;;;;5096074;28;20091;-54
2021/01/06 06:19:23;;;;;;;15.67;8.27;;;1.90;99.90;;;;;;5095754;28;20094;-54
2021/01/06 06:21:59;;;;;;;14.17;8.13;;;1.80;99.90;;;;;;5076190;28;20028;-55
2021/01/06 06:24:44;;;;;;;13.40;6.97;;;1.80;99.90;;;;;;5076108;28;20088;-54
2021/01/06 06:27:40;;;;;;;11.95;6.70;;;1.90;99.90;;;;;;5077568;28;20333;-54
2021/01/06 06:30:12;;;;;;;16.23;7.90;;;1.90;99.90;;;;;;5080076;28;20063;-54
2021/01/06 06:32:40;;;;;;;12.65;6.80;;;1.90;99.90;;;;;;5079497;28;20639;-54
2021/01/06 06:35:35;;;;;;;14.63;6.87;;;1.90;99.90;;;;;;5079649;28;20298;-54
2021/01/06 06:38:05;;;;;;;14.17;7.60;;;1.90;99.90;;;;;;5079507;28;20367;-54
2021/01/06 06:40:53;;;;;;;16.77;7.20;;;1.90;99.90;;;;;;5079275;28;20253;-54
2021/01/06 06:43:29;;;;;;;11.85;6.60;;;1.90;99.90;;;;;;5079609;28;20104;-55
2021/01/06 06:46:17;;;;;;;11.55;7.10;;;1.90;99.90;;;;;;5079438;28;20069;-54
2021/01/06 06:48:59;;;;;;;9.60;5.33;;;1.90;99.90;;;;;;5079261;28;20061;-55
2021/01/06 06:51:50;;;;;;;11.03;5.57;;;1.90;99.90;;;;;;5079085;28;20065;-55
2021/01/06 06:54:21;;;;;;;10.30;6.23;;;2.00;99.90;;;;;;5078995;28;20256;-54
2021/01/06 06:57:01;;;;;;;10.10;5.57;;;1.90;99.90;;;;;;5079017;28;20053;-54
2021/01/06 07:00:05;;;;;;;15.03;5.67;;;2.00;99.90;;;;;;5078960;28;20349;-55
2021/01/06 07:02:31;;;;;;;11.20;6.27;;;1.90;99.90;;;;;;5078541;28;20182;-55
2021/01/06 07:05:03;;;;;;;9.63;5.33;;;2.00;99.90;;;;;;5078730;28;20309;-55
2021/01/06 07:07:44;;;;;;;13.93;5.17;;;1.90;99.90;;;;;;5079262;28;20403;-55
2021/01/06 07:10:19;;;;;;;13.40;5.70;;;1.90;99.90;;;;;;5079096;28;20090;-54
2021/01/06 07:12:45;;;;;;;12.17;5.60;;;2.00;99.90;;;;;;5078977;28;20818;-55
2021/01/06 07:15:30;;;;;;;13.00;6.90;;;1.90;99.90;;;;;;5078495;28;20260;-55
2021/01/06 07:17:56;;;;;;;12.03;6.13;;;2.00;99.90;;;;;;5078858;28;20381;-54
2021/01/06 07:20:42;;;;;;;9.33;5.00;;;2.00;99.90;;;;;;5078489;28;20261;-54
2021/01/06 07:23:21;;;;;;;13.93;5.93;;;1.90;99.90;;;;;;5078553;28;20430;-55
2021/01/06 07:26:02;;;;;;;10.33;5.60;;;2.00;99.90;;;;;;5078822;28;20061;-55
2021/01/06 07:28:28;;;;;;;10.47;6.07;;;2.00;99.90;;;;;;5077557;28;20265;-55
2021/01/06 07:30:54;;;;;;;13.50;6.83;;;1.90;99.90;;;;;;5078387;28;20061;-54
2021/01/06 07:33:24;;;;;;;12.20;6.40;;;2.00;99.90;;;;;;5078734;28;20134;-54
2021/01/06 07:35:50;;;;;;;10.80;6.90;;;2.00;99.90;;;;;;5078154;28;20146;-55
2021/01/06 07:38:18;;;;;;;11.50;6.50;;;2.00;99.90;;;;;;5077038;28;20143;-55
2021/01/06 07:40:46;;;;;;;12.73;5.77;;;2.00;99.90;;;;;;5078677;28;20551;-54
2021/01/06 07:43:23;;;;;;;9.47;5.10;;;2.00;99.90;;;;;;5077914;28;20072;-54
2021/01/06 07:45:51;;;;;;;12.07;5.60;;;2.00;99.90;;;;;;5078023;28;20049;-54
2021/01/06 07:48:24;;;;;;;10.47;5.53;;;1.90;99.90;;;;;;5077686;28;20096;-54
2021/01/06 07:51:01;;;;;;;10.00;5.38;;;2.00;99.90;;;;;;5077968;28;20440;-55
2021/01/06 07:53:48;;;;;;;10.20;5.07;;;1.90;99.90;;;;;;5078200;28;20048;-54
2021/01/06 07:56:42;;;;;;;13.97;5.47;;;1.90;99.90;;;;;;5073724;28;20655;-54
2021/01/06 07:59:26;;;;;;;10.07;5.57;;;1.90;99.90;;;;;;5078006;28;20456;-55
2021/01/06 08:02:05;;;;;;;12.07;5.65;;;2.00;99.90;;;;;;5077944;28;20089;-54
2021/01/06 08:04:57;;;;;;;8.85;5.40;;;2.00;99.90;;;;;;5077849;28;20374;-54
2021/01/06 08:07:26;;;;;;;10.27;4.83;;;2.00;99.90;;;;;;5073914;28;20065;-55
2021/01/06 08:09:52;;;;;;;9.17;4.40;;;2.00;99.90;;;;;;5077605;28;20252;-54
2021/01/06 08:12:33;;;;;;;10.03;4.93;;;2.00;99.90;;;;;;5077423;28;20071;-55
2021/01/06 08:15:12;;;;;;;11.20;5.60;;;2.00;99.90;;;;;;5077547;28;20296;-56
2021/01/06 08:18:05;;;;;;;9.70;5.20;;;2.00;99.90;;;;;;5077519;28;20253;-55
2021/01/06 08:20:45;;;;;;;11.37;4.80;;;2.00;99.90;;;;;;5086011;28;20056;-54
2021/01/06 08:23:27;;;;;;;9.53;5.43;;;2.00;99.90;;;;;;5097397;28;20260;-54
2021/01/06 08:26:12;;;;;;;11.10;6.23;;;2.00;99.90;;;;;;5097674;28;20264;-54
2021/01/06 08:28:39;;;;;;;7.75;4.00;;;2.00;99.90;;;;;;5097798;28;20044;-54
2021/01/06 08:31:18;;;;;;;10.33;5.73;;;2.00;99.90;;;;;;5097331;28;20257;-56
2021/01/06 08:33:53;;;;;;;9.55;5.35;;;1.90;99.90;;;;;;5097141;28;20253;-54
2021/01/06 08:36:35;;;;;;;9.33;4.03;;;2.00;99.90;;;;;;5097738;28;20370;-54
2021/01/06 08:39:17;;;;;;;11.27;4.63;;;2.00;99.90;;;;;;5097562;28;20245;-54
2021/01/06 08:41:44;;;;;;;12.50;4.60;;;1.90;99.90;;;;;;5097383;28;20075;-54
2021/01/06 08:44:28;;;;;;;10.93;5.17;;;1.90;99.90;;;;;;5097481;28;20060;-54
2021/01/06 08:46:56;;;;;;;9.68;5.32;;;1.90;99.90;;;;;;5097162;28;20542;-54
2021/01/06 08:49:32;;;;;;;11.30;5.25;;;2.00;99.90;;;;;;5097050;28;20107;-54
2021/01/06 08:52:16;;;;;;;9.53;5.60;;;2.00;99.90;;;;;;5097265;28;20073;-54
2021/01/06 08:54:46;;;;;;;11.50;5.40;;;2.00;99.90;;;;;;5097019;28;20060;-55
2021/01/06 08:57:34;;;;;;;11.07;5.50;;;2.10;99.90;;;;;;5096780;28;20068;-55
2021/01/06 09:00:20;;;;;;;10.85;5.05;;;2.20;99.90;;;;;;5096997;28;20209;-55
2021/01/06 09:02:50;;;;;;;10.57;5.57;;;2.30;99.90;;;;;;5095916;28;20587;-57
2021/01/06 09:05:46;;;;;;;10.65;4.50;;;2.40;99.90;;;;;;5096391;28;20273;-56
2021/01/06 09:08:32;;;;;;;9.97;4.63;;;2.40;99.90;;;;;;5076854;28;20314;-56
2021/01/06 09:11:01;;;;;;;9.87;4.60;;;2.50;99.90;;;;;;5076564;28;20405;-56
2021/01/06 09:13:50;;;;;;;8.33;4.77;;;2.50;99.90;;;;;;5081351;28;20355;-57
2021/01/06 09:16:28;;;;;;;12.97;4.33;;;2.50;99.90;;;;;;5064947;28;20260;-57
2021/01/06 09:19:16;;;;;;;10.43;4.87;;;2.60;99.90;;;;;;5076758;28;20241;-57
2021/01/06 09:21:42;;;;;;;8.27;4.13;;;2.50;99.90;;;;;;5094974;28;20272;-56
2021/01/06 09:24:16;;;;;;;12.00;5.10;;;2.60;99.90;;;;;;5096244;28;20314;-56
2021/01/06 09:26:46;;;;;;;11.53;4.80;;;2.70;99.90;;;;;;5096470;28;20028;-56
2021/01/06 09:29:17;;;;;;;9.03;4.63;;;2.70;99.90;;;;;;5096471;28;20253;-56
2021/01/06 09:31:49;;;;;;;9.67;4.77;;;2.80;99.90;;;;;;5096693;28;19904;-56
2021/01/06 09:34:18;;;;;;;8.60;4.30;;;2.80;99.90;;;;;;5096475;28;20255;-56
2021/01/06 09:36:47;;;;;;;9.57;4.60;;;2.80;99.90;;;;;;5096149;28;20039;-56
2021/01/06 09:39:18;;;;;;;10.27;4.40;;;2.80;99.90;;;;;;5096414;28;20024;-55
2021/01/06 09:41:45;;;;;;;8.73;3.80;;;2.80;99.90;;;;;;5096120;28;20097;-55
2021/01/06 09:44:11;;;;;;;11.20;4.57;;;2.80;99.90;;;;;;5094436;28;20316;-55
2021/01/06 09:46:50;;;;;;;7.90;5.50;;;3.00;99.90;;;;;;5095035;28;20238;-55
2021/01/06 09:49:40;;;;;;;8.07;3.83;;;3.00;99.90;;;;;;5074748;28;20354;-55
2021/01/06 09:52:24;;;;;;;11.37;5.10;;;3.10;99.90;;;;;;5087788;28;20102;-54
2021/01/06 09:54:53;;;;;;;6.37;3.30;;;3.20;99.90;;;;;;5095424;28;20024;-54
2021/01/06 09:57:21;;;;;;;13.33;4.83;;;3.20;99.90;;;;;;5096171;28;20034;-54
2021/01/06 09:59:50;;;;;;;12.10;4.77;;;3.20;99.90;;;;;;5096191;28;20024;-54
2021/01/06 10:02:28;;;;;;;6.30;3.17;;;3.30;99.90;;;;;;5097838;28;20016;-54
2021/01/06 10:05:16;;;;;;;9.00;4.73;;;3.40;99.90;;;;;;5098288;28;20522;-53
2021/01/06 10:08:04;;;;;;;8.37;4.83;;;3.40;99.90;;;;;;5095869;28;20066;-53
2021/01/06 10:10:34;;;;;;;7.47;4.30;;;3.50;99.90;;;;;;5090357;28;20035;-54
2021/01/06 10:13:15;;;;;;;7.90;4.07;;;3.40;99.90;;;;;;5098418;28;19954;-54
2021/01/06 10:16:07;;;;;;;11.40;4.27;;;3.40;99.90;;;;;;5080017;28;20431;-54
2021/01/06 10:18:59;;;;;;;9.20;5.07;;;3.40;99.90;;;;;;5079624;28;20031;-55
2021/01/06 10:21:31;;;;;;;9.97;5.10;;;3.40;99.90;;;;;;5095533;28;20321;-57
2021/01/06 10:24:17;;;;;;;11.30;5.20;;;3.30;99.90;;;;;;5099640;28;20055;-54
2021/01/06 10:27:06;;;;;;;8.70;5.10;;;3.50;99.90;;;;;;5099950;28;20020;-53
2021/01/06 10:29:37;;;;;;;11.47;6.47;;;3.40;99.90;;;;;;5079958;28;20032;-54
2021/01/06 10:32:11;;;;;;;11.03;5.87;;;3.30;99.90;;;;;;5099647;28;20032;-54
2021/01/06 10:34:37;;;;;;;10.33;5.30;;;3.30;99.90;;;;;;5099919;28;20028;-54
2021/01/06 10:37:02;;;;;;;11.83;5.87;;;3.40;99.90;;;;;;5099356;28;20342;-54
2021/01/06 10:39:38;;;;;;;8.83;4.97;;;3.40;99.90;;;;;;5099620;28;20024;-56
2021/01/06 10:42:26;;;;;;;10.83;6.13;;;3.40;99.90;;;;;;5098833;28;20032;-55
2021/01/06 10:44:53;;;;;;;10.05;5.70;;;3.40;99.90;;;;;;5099003;28;20028;-54
2021/01/06 10:47:31;;;;;;;12.90;6.03;;;3.20;99.90;;;;;;5098978;28;20347;-54
2021/01/06 10:50:00;;;;;;;11.67;6.90;;;3.20;99.90;;;;;;5099220;28;20024;-56
2021/01/06 10:52:36;;;;;;;8.67;5.10;;;3.20;99.90;;;;;;5099298;28;20023;-54
2021/01/06 10:55:07;;;;;;;13.13;6.50;;;3.30;99.90;;;;;;5099394;28;19950;-54
2021/01/06 10:57:46;;;;;;;10.93;6.33;;;3.30;99.90;;;;;;5098858;28;20028;-54
2021/01/06 11:00:18;;;;;;;9.40;5.25;;;3.30;99.90;;;;;;5097542;28;20077;-53
2021/01/06 11:02:56;;;;;;;10.75;5.03;;;3.30;99.90;;;;;;5098580;28;20035;-54
2021/01/06 11:05:38;;;;;;;11.27;5.67;;;3.30;99.90;;;;;;5099220;28;19916;-54
2021/01/06 11:08:28;;;;;;;13.37;5.53;;;3.30;99.90;;;;;;5099383;28;20024;-55
2021/01/06 11:11:21;;;;;;;11.67;6.67;;;3.30;99.90;;;;;;5099031;28;20016;-55
2021/01/06 11:14:05;;;;;;;11.73;5.50;;;3.40;99.90;;;;;;5097778;28;20333;-55
2021/01/06 11:16:47;;;;;;;12.13;5.70;;;3.40;99.90;;;;;;5098961;28;20042;-54
2021/01/06 11:19:36;;;;;;;16.20;8.63;;;3.40;99.90;;;;;;5098665;28;20028;-54
2021/01/06 11:22:38;;;;;;;12.30;6.57;;;3.40;99.90;;;;;;5078576;28;20020;-56
2021/01/06 11:25:32;;;;;;;11.90;6.87;;;3.40;99.90;;;;;;5076699;28;20482;-56
2021/01/06 11:28:04;;;;;;;10.88;6.15;;;3.50;99.90;;;;;;5078859;28;20288;-55
2021/01/06 11:30:35;;;;;;;15.80;7.10;;;3.40;99.90;;;;;;5078491;28;20020;-56
2021/01/06 11:33:28;;;;;;;12.83;6.90;;;3.40;99.90;;;;;;5097866;28;20391;-55
2021/01/06 11:36:20;;;;;;;14.83;7.10;;;3.50;99.90;;;;;;5097577;28;20123;-55
2021/01/06 11:38:50;;;;;;;11.13;7.03;;;3.40;99.90;;;;;;5098574;28;20046;-55
2021/01/06 11:41:38;;;;;;;12.07;7.73;;;3.40;99.90;;;;;;5098255;28;20077;-55
2021/01/06 11:44:28;;;;;;;12.80;6.80;;;3.40;99.90;;;;;;5097946;28;20020;-55
2021/01/06 11:47:03;;;;;;;13.40;6.87;;;3.40;99.90;;;;;;5098540;28;20016;-55
2021/01/06 11:49:32;;;;;;;13.25;7.95;;;3.30;99.90;;;;;;5098183;28;20020;-56
2021/01/06 11:52:06;;;;;;;11.77;7.60;;;3.40;99.90;;;;;;5098092;28;20020;-54
2021/01/06 11:54:36;;;;;;;14.40;8.10;;;3.60;99.90;;;;;;5098320;28;20115;-54
2021/01/06 11:57:13;;;;;;;14.50;7.33;;;3.70;99.90;;;;;;5092831;28;20106;-54
2021/01/06 11:59:50;;;;;;;12.33;7.00;;;3.80;99.90;;;;;;5091167;28;20032;-55
2021/01/06 12:02:31;;;;;;;13.97;7.53;;;3.70;99.90;;;;;;5106321;28;19914;-53
2021/01/06 12:05:16;;;;;;;14.37;7.90;;;3.70;99.90;;;;;;5101765;28;20098;-54
2021/01/06 12:08:14;;;;;;;11.20;7.37;;;3.70;99.90;;;;;;5109159;28;20023;-54
2021/01/06 12:10:40;;;;;;;16.00;7.50;;;3.80;99.90;;;;;;5116707;28;20035;-54
2021/01/06 12:13:18;;;;;;;20.45;9.75;;;3.70;99.90;;;;;;5117951;28;20031;-53
2021/01/06 12:16:11;;;;;;;20.93;8.83;;;3.60;99.90;;;;;;5118443;28;20063;-53
2021/01/06 12:18:40;;;;;;;24.83;11.18;;;3.70;99.90;;;;;;5117801;28;20030;-55
2021/01/06 12:21:34;;;;;;;15.63;9.37;;;3.60;99.90;;;;;;5103775;28;20020;-55
2021/01/06 12:24:21;;;;;;;14.93;7.93;;;3.70;99.90;;;;;;5097439;28;20019;-55
2021/01/06 12:27:02;;;;;;;16.80;9.43;;;3.80;99.90;;;;;;5097280;28;20024;-55
2021/01/06 12:29:50;;;;;;;17.83;9.70;;;3.60;99.90;;;;;;5097416;28;20449;-54
2021/01/06 12:32:15;;;;;;;14.47;9.30;;;3.60;99.90;;;;;;5096115;28;20040;-54
2021/01/06 12:34:44;;;;;;;17.57;10.37;;;3.60;99.90;;;;;;5096696;28;20031;-54
2021/01/06 12:37:12;;;;;;;18.77;10.03;;;3.60;99.90;;;;;;5095719;28;20027;-54
2021/01/06 12:39:37;;;;;;;17.10;9.20;;;3.50;99.90;;;;;;5094826;28;19961;-54
2021/01/06 12:42:30;;;;;;;12.70;8.03;;;3.70;99.90;;;;;;5095920;28;20119;-57
2021/01/06 12:45:19;;;;;;;17.13;9.40;;;3.60;99.90;;;;;;5096159;28;20016;-55
2021/01/06 12:48:00;;;;;;;13.10;8.80;;;3.70;99.90;;;;;;5080266;28;20085;-54
2021/01/06 12:50:49;;;;;;;14.70;8.30;;;3.80;99.90;;;;;;5092776;28;20016;-55
2021/01/06 12:53:42;;;;;;;18.93;9.30;;;3.80;99.90;;;;;;5095180;28;20031;-55
2021/01/06 12:56:43;;;;;;;15.40;8.30;;;3.70;99.90;;;;;;5089543;28;20078;-54
2021/01/06 12:59:17;;;;;;;15.07;9.33;;;3.70;99.90;;;;;;5095345;28;20044;-54
2021/01/06 13:02:03;;;;;;;22.90;11.57;;;3.60;99.90;;;;;;5096855;28;20161;-54
2021/01/06 13:04:29;;;;;;;15.83;9.03;;;3.60;99.90;;;;;;5096625;28;20051;-54
2021/01/06 13:07:16;;;;;;;18.73;9.70;;;3.60;99.90;;;;;;5095615;28;20058;-54
2021/01/06 13:10:15;;;;;;;16.33;10.07;;;3.70;99.90;;;;;;5096930;28;20069;-53
2021/01/06 13:13:15;;;;;;;18.83;10.97;;;3.80;99.90;;;;;;5096669;28;20020;-54
2021/01/06 13:15:43;;;;;;;15.30;8.97;;;3.80;99.90;;;;;;5094786;28;20384;-55
2021/01/06 13:18:16;;;;;;;15.60;8.93;;;3.90;99.90;;;;;;5096295;28;20438;-55
2021/01/06 13:21:04;;;;;;;15.93;8.40;;;4.00;99.90;;;;;;5095933;28;20024;-54
2021/01/06 13:23:33;;;;;;;19.27;8.53;;;3.90;99.90;;;;;;5096723;28;20024;-56
2021/01/06 13:26:16;;;;;;;20.47;12.43;;;3.90;99.90;;;;;;5096579;28;20020;-55
2021/01/06 13:29:02;;;;;;;24.00;13.77;;;3.90;99.90;;;;;;5096044;28;20098;-55
2021/01/06 13:31:42;;;;;;;26.77;17.57;;;4.00;99.90;;;;;;5096787;28;20279;-55